Altona, Illinois
Current Conditions -  °F | °C
As of 2:15 PM on Wednesday 26 Nov 2014 (Local Time) from KGBG Reporting Station
Light Snow Light Snow  
Wind Chill: 22°   Ceiling: 2600
Heat Index: 31°   Visibility: 1.5mi
Dew Point: 28°   Wind: 10mph
Humidity: 91%   Direction: 80°E
Pressure: 30.02"   Gusts: 16mph
Location:  41.11°N, 90.16°W
Report Text: KGBG 262015Z AUTO 08009G14KT 1 1/2SM -SN SCT010 OVC026 M01/M02 A3002 RMK AO2 T10071020
Loading
Personal Weather Stations






























Interactive Weather Map New forecast layout! Learn more

10-Day Weather Forecast

Advertisements
Track Severe Weather on mobile